baixocidade.com.br alexa rank chart, baixocidade.com.br alexa rank daily changes

baixocidade.com.br alexa rank chart, baixocidade.com.br alexa rank daily changes

baixocidade.com.br
Actual rank:
232 820

RANK HISTORY

Date Rank Diff
2017/05/24 232 820 +8 239
2017/05/23 224 581 +2 505
2017/05/22 222 076 +8 936
2017/05/21 213 140 +1 805
2017/05/20 211 335 -4 404
2017/05/19 215 739 +6 241
2017/05/18 209 498 +1 538
2017/05/17 207 960 -1 585
2017/05/16 209 545 +302
2017/05/15 209 243 +6 110
2017/05/14 203 133 -581
2017/05/13 203 714 +4 145
2017/05/12 199 569 -826
2017/05/11 200 395 +5 789
2017/05/10 194 606 +4 342
2017/05/09 190 264 +407
2017/05/08 189 857 -3 045
2017/05/07 192 902 +705
2017/05/06 192 197 +3 320
2017/05/05 188 877 +3 792
2017/05/04 185 085 +6 595
2017/05/03 178 490 +1 873
2017/05/02 176 617 +921
2017/05/01 175 696 +1 622
2017/04/30 174 074 -6 871
2017/04/29 180 945 -418
2017/04/28 181 363 +1 914
2017/04/27 179 449 +945
2017/04/26 178 504 -1 569
2017/04/25 180 073 -2 409
2017/04/24 182 482 -1 939
2017/04/23 184 421 +1 668
2017/04/22 182 753 +16
2017/04/21 182 737 +5 350
2017/04/20 177 387 +3 222
2017/04/19 174 165 +732
2017/04/18 173 433 -180
2017/04/17 173 613 +466
2017/04/16 173 147 -1 418
2017/04/15 174 565 -2 651
2017/04/14 177 216 +1 521
2017/04/13 175 695 +2 142
2017/04/12 173 553 +536
2017/04/11 173 017 -1 407
2017/04/10 174 424 -4 450
2017/04/09 178 874 +3 050
2017/04/08 175 824 +6
2017/04/07 175 818 +3 547
2017/04/06 172 271 +613
2017/04/05 171 658 -3 240
2017/04/04 174 898 -1 330
2017/04/03 176 228 +702
2017/04/02 175 526 +2 366
2017/04/01 173 160 +339
2017/03/31 172 821 -475
2017/03/30 173 296 +2 976
2017/03/29 170 320 +8 226
2017/03/28 162 094 -3 358
2017/03/27 165 452 +2 760
2017/03/26 162 692 -1 749
2017/03/25 164 441 +2 633
2017/03/24 161 808

WIDGET FOR YOUR SITE

DOMAINS WITH THE NEAREST RANK

Domain Rank
hr-s.co.jp 232 815
bb-building.net 232 816
msmc.edu 232 817
speedweed.com 232 818
anyhdmoviedownloadfree.com 232 819
baixocidade.com.br 232 820
aktiv48.ru 232 821
pargolf.co.jp 232 822
idola188.info 232 823
foreca.es 232 824
newunited.com.cn 232 825

DOMAINS WITH THE NEAREST RANK BY TLD .com.br

Domain Rank
igti.com.br 232 570
starofservice.com.br 232 628
franadesivos.com.br 232 665
tellows.com.br 232 677
propmark.com.br 232 809
baixocidade.com.br 232 820
oobj.com.br 232 842
portal730.com.br 232 939
estudosgospel.com.br 232 970
sinescontabil.com.br 232 979
e-tribuna.com.br 233 055